sensor_id;sensor_type;location;lat;lon;timestamp;temperature;humidity
17473;DHT22;8853;52.552;13.356;2022-07-06T00:01:24;28.90;22.30
17473;DHT22;8853;52.552;13.356;2022-07-06T00:03:53;28.90;22.30
17473;DHT22;8853;52.552;13.356;2022-07-06T00:06:22;28.90;22.40
17473;DHT22;8853;52.552;13.356;2022-07-06T00:08:50;28.90;22.30
17473;DHT22;8853;52.552;13.356;2022-07-06T00:11:19;28.90;22.30
17473;DHT22;8853;52.552;13.356;2022-07-06T00:13:48;28.90;22.30
17473;DHT22;8853;52.552;13.356;2022-07-06T00:16:17;28.90;22.40
17473;DHT22;8853;52.552;13.356;2022-07-06T00:18:45;28.90;23.00
17473;DHT22;8853;52.552;13.356;2022-07-06T00:21:13;28.90;22.30
17473;DHT22;8853;52.552;13.356;2022-07-06T00:23:42;28.90;22.30
17473;DHT22;8853;52.552;13.356;2022-07-06T00:26:11;29.00;22.80
17473;DHT22;8853;52.552;13.356;2022-07-06T00:28:39;29.00;22.80
17473;DHT22;8853;52.552;13.356;2022-07-06T00:31:08;29.00;22.80
17473;DHT22;8853;52.552;13.356;2022-07-06T00:33:37;29.10;22.80
17473;DHT22;8853;52.552;13.356;2022-07-06T00:36:05;29.00;22.80
17473;DHT22;8853;52.552;13.356;2022-07-06T00:38:34;29.00;22.80
17473;DHT22;8853;52.552;13.356;2022-07-06T00:41:03;29.00;22.80
17473;DHT22;8853;52.552;13.356;2022-07-06T00:43:52;29.10;22.80
17473;DHT22;8853;52.552;13.356;2022-07-06T00:46:18;29.10;22.80
17473;DHT22;8853;52.552;13.356;2022-07-06T00:48:47;29.00;22.90
17473;DHT22;8853;52.552;13.356;2022-07-06T00:51:15;29.00;23.00
17473;DHT22;8853;52.552;13.356;2022-07-06T00:53:44;29.00;23.00
17473;DHT22;8853;52.552;13.356;2022-07-06T00:56:13;29.10;23.00
17473;DHT22;8853;52.552;13.356;2022-07-06T00:58:42;29.00;23.20
17473;DHT22;8853;52.552;13.356;2022-07-06T01:01:11;29.10;23.00
17473;DHT22;8853;52.552;13.356;2022-07-06T01:03:39;29.10;23.00
17473;DHT22;8853;52.552;13.356;2022-07-06T01:06:08;29.10;23.00
17473;DHT22;8853;52.552;13.356;2022-07-06T01:08:37;29.10;23.00
17473;DHT22;8853;52.552;13.356;2022-07-06T01:11:05;29.10;23.00
17473;DHT22;8853;52.552;13.356;2022-07-06T01:13:34;29.10;23.00
17473;DHT22;8853;52.552;13.356;2022-07-06T01:16:03;29.10;23.00
17473;DHT22;8853;52.552;13.356;2022-07-06T01:18:32;29.10;23.00
17473;DHT22;8853;52.552;13.356;2022-07-06T01:21:13;29.00;23.00
17473;DHT22;8853;52.552;13.356;2022-07-06T01:23:45;29.00;23.00
17473;DHT22;8853;52.552;13.356;2022-07-06T01:26:14;29.00;23.10
17473;DHT22;8853;52.552;13.356;2022-07-06T01:28:42;29.00;23.10
17473;DHT22;8853;52.552;13.356;2022-07-06T01:31:24;29.00;23.20
17473;DHT22;8853;52.552;13.356;2022-07-06T01:33:52;29.00;23.20
17473;DHT22;8853;52.552;13.356;2022-07-06T01:36:20;29.00;23.30
17473;DHT22;8853;52.552;13.356;2022-07-06T01:38:49;28.90;22.80
17473;DHT22;8853;52.552;13.356;2022-07-06T01:41:18;28.90;22.80
17473;DHT22;8853;52.552;13.356;2022-07-06T01:43:46;29.00;23.30
17473;DHT22;8853;52.552;13.356;2022-07-06T01:46:15;28.90;22.80
17473;DHT22;8853;52.552;13.356;2022-07-06T01:48:44;29.00;23.40
17473;DHT22;8853;52.552;13.356;2022-07-06T01:51:13;29.00;23.30
17473;DHT22;8853;52.552;13.356;2022-07-06T01:53:41;29.00;23.30
17473;DHT22;8853;52.552;13.356;2022-07-06T01:56:10;29.00;23.30
17473;DHT22;8853;52.552;13.356;2022-07-06T01:58:39;29.00;23.40
17473;DHT22;8853;52.552;13.356;2022-07-06T02:01:11;29.00;23.30
17473;DHT22;8853;52.552;13.356;2022-07-06T02:03:39;29.00;23.30
17473;DHT22;8853;52.552;13.356;2022-07-06T02:06:08;28.90;22.90
17473;DHT22;8853;52.552;13.356;2022-07-06T02:08:38;28.90;23.00
17473;DHT22;8853;52.552;13.356;2022-07-06T02:11:06;28.90;22.90
17473;DHT22;8853;52.552;13.356;2022-07-06T02:13:35;29.00;23.40
17473;DHT22;8853;52.552;13.356;2022-07-06T02:16:04;28.90;22.90
17473;DHT22;8853;52.552;13.356;2022-07-06T02:18:33;28.90;23.00
17473;DHT22;8853;52.552;13.356;2022-07-06T02:21:05;28.90;23.20
17473;DHT22;8853;52.552;13.356;2022-07-06T02:23:34;28.90;23.20
17473;DHT22;8853;52.552;13.356;2022-07-06T02:26:03;28.90;23.60
17473;DHT22;8853;52.552;13.356;2022-07-06T02:28:32;28.90;23.60
17473;DHT22;8853;52.552;13.356;2022-07-06T02:31:01;28.90;23.80
17473;DHT22;8853;52.552;13.356;2022-07-06T02:33:30;28.90;24.10
17473;DHT22;8853;52.552;13.356;2022-07-06T02:35:59;28.90;24.10
17473;DHT22;8853;52.552;13.356;2022-07-06T02:38:27;28.90;24.20
17473;DHT22;8853;52.552;13.356;2022-07-06T02:40:56;28.90;24.40
17473;DHT22;8853;52.552;13.356;2022-07-06T02:43:25;28.90;24.40
17473;DHT22;8853;52.552;13.356;2022-07-06T02:45:53;28.90;24.50
17473;DHT22;8853;52.552;13.356;2022-07-06T02:48:22;28.90;24.60
17473;DHT22;8853;52.552;13.356;2022-07-06T02:50:50;28.90;24.70
17473;DHT22;8853;52.552;13.356;2022-07-06T02:53:20;28.90;25.00
17473;DHT22;8853;52.552;13.356;2022-07-06T02:59:59;28.90;25.10
17473;DHT22;8853;52.552;13.356;2022-07-06T03:02:28;28.70;25.50
17473;DHT22;8853;52.552;13.356;2022-07-06T03:04:57;28.80;25.60
17473;DHT22;8853;52.552;13.356;2022-07-06T03:07:25;28.80;25.60
17473;DHT22;8853;52.552;13.356;2022-07-06T03:09:54;28.90;25.60
17473;DHT22;8853;52.552;13.356;2022-07-06T03:12:23;28.90;25.70
17473;DHT22;8853;52.552;13.356;2022-07-06T03:14:51;28.90;25.70
17473;DHT22;8853;52.552;13.356;2022-07-06T03:17:20;28.90;25.70
17473;DHT22;8853;52.552;13.356;2022-07-06T03:19:49;28.90;25.70
17473;DHT22;8853;52.552;13.356;2022-07-06T03:22:17;28.90;25.70
17473;DHT22;8853;52.552;13.356;2022-07-06T03:24:46;29.00;26.20
17473;DHT22;8853;52.552;13.356;2022-07-06T03:27:14;29.00;26.30
17473;DHT22;8853;52.552;13.356;2022-07-06T03:29:43;28.90;25.90
17473;DHT22;8853;52.552;13.356;2022-07-06T03:32:12;28.90;25.90
17473;DHT22;8853;52.552;13.356;2022-07-06T03:34:41;28.90;26.00
17473;DHT22;8853;52.552;13.356;2022-07-06T03:37:09;28.90;26.00
17473;DHT22;8853;52.552;13.356;2022-07-06T03:39:38;28.90;26.00
17473;DHT22;8853;52.552;13.356;2022-07-06T03:42:06;29.00;27.10
17473;DHT22;8853;52.552;13.356;2022-07-06T03:44:35;29.00;26.50
17473;DHT22;8853;52.552;13.356;2022-07-06T03:47:04;29.00;26.60
17473;DHT22;8853;52.552;13.356;2022-07-06T03:49:32;29.00;26.60
17473;DHT22;8853;52.552;13.356;2022-07-06T03:52:01;29.00;26.60
17473;DHT22;8853;52.552;13.356;2022-07-06T03:54:30;29.00;26.70
17473;DHT22;8853;52.552;13.356;2022-07-06T03:56:58;29.00;26.70
17473;DHT22;8853;52.552;13.356;2022-07-06T03:59:27;29.00;26.70
17473;DHT22;8853;52.552;13.356;2022-07-06T04:01:56;29.00;26.70
17473;DHT22;8853;52.552;13.356;2022-07-06T04:04:25;28.90;26.10
17473;DHT22;8853;52.552;13.356;2022-07-06T04:06:53;28.90;26.10
17473;DHT22;8853;52.552;13.356;2022-07-06T04:09:22;28.90;26.00
17473;DHT22;8853;52.552;13.356;2022-07-06T04:11:51;28.90;26.00
17473;DHT22;8853;52.552;13.356;2022-07-06T04:14:19;28.90;26.60
17473;DHT22;8853;52.552;13.356;2022-07-06T04:16:48;28.90;26.00
17473;DHT22;8853;52.552;13.356;2022-07-06T04:19:16;28.80;26.00
17473;DHT22;8853;52.552;13.356;2022-07-06T04:21:45;28.80;26.10
17473;DHT22;8853;52.552;13.356;2022-07-06T04:24:14;28.80;26.10
17473;DHT22;8853;52.552;13.356;2022-07-06T04:26:42;28.80;26.10
17473;DHT22;8853;52.552;13.356;2022-07-06T04:29:11;28.80;26.20
17473;DHT22;8853;52.552;13.356;2022-07-06T04:31:40;28.80;26.20
17473;DHT22;8853;52.552;13.356;2022-07-06T04:34:09;28.80;26.60
17473;DHT22;8853;52.552;13.356;2022-07-06T04:36:38;28.70;26.50
17473;DHT22;8853;52.552;13.356;2022-07-06T04:39:06;28.70;26.50
17473;DHT22;8853;52.552;13.356;2022-07-06T04:41:35;28.70;26.60
17473;DHT22;8853;52.552;13.356;2022-07-06T04:44:04;28.70;26.60
17473;DHT22;8853;52.552;13.356;2022-07-06T04:46:32;28.60;26.70
17473;DHT22;8853;52.552;13.356;2022-07-06T04:49:01;28.60;26.80
17473;DHT22;8853;52.552;13.356;2022-07-06T04:51:29;28.60;26.80
17473;DHT22;8853;52.552;13.356;2022-07-06T04:53:58;28.50;26.90
17473;DHT22;8853;52.552;13.356;2022-07-06T04:56:27;28.50;26.90
17473;DHT22;8853;52.552;13.356;2022-07-06T04:58:55;28.50;27.00
17473;DHT22;8853;52.552;13.356;2022-07-06T05:01:25;28.40;27.00
17473;DHT22;8853;52.552;13.356;2022-07-06T05:03:53;28.40;27.00
17473;DHT22;8853;52.552;13.356;2022-07-06T05:06:23;28.30;27.10
17473;DHT22;8853;52.552;13.356;2022-07-06T05:08:52;28.30;27.20
17473;DHT22;8853;52.552;13.356;2022-07-06T05:11:21;28.30;27.20
17473;DHT22;8853;52.552;13.356;2022-07-06T05:13:50;28.20;27.30
17473;DHT22;8853;52.552;13.356;2022-07-06T05:16:18;28.20;27.20
17473;DHT22;8853;52.552;13.356;2022-07-06T05:18:48;28.10;27.40
17473;DHT22;8853;52.552;13.356;2022-07-06T05:21:16;28.10;27.40
17473;DHT22;8853;52.552;13.356;2022-07-06T05:23:45;28.10;27.40
17473;DHT22;8853;52.552;13.356;2022-07-06T05:26:14;28.00;27.30
17473;DHT22;8853;52.552;13.356;2022-07-06T05:28:43;28.00;27.20
17473;DHT22;8853;52.552;13.356;2022-07-06T05:31:12;28.10;27.70
17473;DHT22;8853;52.552;13.356;2022-07-06T05:33:41;28.20;27.10
17473;DHT22;8853;52.552;13.356;2022-07-06T05:36:10;28.10;27.00
17473;DHT22;8853;52.552;13.356;2022-07-06T05:38:39;28.20;26.90
17473;DHT22;8853;52.552;13.356;2022-07-06T05:41:07;28.20;26.90
17473;DHT22;8853;52.552;13.356;2022-07-06T05:43:36;28.20;26.80
17473;DHT22;8853;52.552;13.356;2022-07-06T05:46:05;28.20;26.70
17473;DHT22;8853;52.552;13.356;2022-07-06T05:48:33;28.30;26.70
17473;DHT22;8853;52.552;13.356;2022-07-06T05:51:21;28.30;26.60
17473;DHT22;8853;52.552;13.356;2022-07-06T05:53:50;28.30;26.60
17473;DHT22;8853;52.552;13.356;2022-07-06T05:56:18;28.40;26.60
17473;DHT22;8853;52.552;13.356;2022-07-06T05:58:47;28.40;26.50
17473;DHT22;8853;52.552;13.356;2022-07-06T06:01:15;28.40;26.50
17473;DHT22;8853;52.552;13.356;2022-07-06T06:03:44;28.50;26.40
17473;DHT22;8853;52.552;13.356;2022-07-06T06:06:13;28.50;26.30
17473;DHT22;8853;52.552;13.356;2022-07-06T06:08:43;28.50;26.20
17473;DHT22;8853;52.552;13.356;2022-07-06T06:11:12;28.50;26.10
17473;DHT22;8853;52.552;13.356;2022-07-06T06:13:41;28.60;26.10
17473;DHT22;8853;52.552;13.356;2022-07-06T06:16:09;28.60;26.00
17473;DHT22;8853;52.552;13.356;2022-07-06T06:18:38;28.60;26.00
17473;DHT22;8853;52.552;13.356;2022-07-06T06:21:07;28.60;26.70
17473;DHT22;8853;52.552;13.356;2022-07-06T06:23:36;28.70;25.80
17473;DHT22;8853;52.552;13.356;2022-07-06T06:26:05;28.70;25.80
17473;DHT22;8853;52.552;13.356;2022-07-06T06:28:34;28.70;25.80
17473;DHT22;8853;52.552;13.356;2022-07-06T06:31:03;28.70;25.70
17473;DHT22;8853;52.552;13.356;2022-07-06T06:33:31;28.70;25.70
17473;DHT22;8853;52.552;13.356;2022-07-06T06:36:00;28.80;25.70
17473;DHT22;8853;52.552;13.356;2022-07-06T06:38:29;28.80;25.70
17473;DHT22;8853;52.552;13.356;2022-07-06T06:40:57;28.80;25.60
17473;DHT22;8853;52.552;13.356;2022-07-06T06:43:26;28.80;25.60
17473;DHT22;8853;52.552;13.356;2022-07-06T06:45:54;28.80;25.60
17473;DHT22;8853;52.552;13.356;2022-07-06T06:48:23;28.80;25.50
17473;DHT22;8853;52.552;13.356;2022-07-06T06:50:53;28.90;25.50
17473;DHT22;8853;52.552;13.356;2022-07-06T06:53:21;28.90;25.50
17473;DHT22;8853;52.552;13.356;2022-07-06T06:55:50;28.90;25.50
17473;DHT22;8853;52.552;13.356;2022-07-06T06:58:19;28.90;25.50
17473;DHT22;8853;52.552;13.356;2022-07-06T07:00:47;28.90;25.40
17473;DHT22;8853;52.552;13.356;2022-07-06T07:03:17;28.90;26.00
17473;DHT22;8853;52.552;13.356;2022-07-06T07:05:45;28.90;25.40
17473;DHT22;8853;52.552;13.356;2022-07-06T07:08:14;29.00;25.90
17473;DHT22;8853;52.552;13.356;2022-07-06T07:10:43;29.00;25.80
17473;DHT22;8853;52.552;13.356;2022-07-06T07:13:11;29.00;25.80
17473;DHT22;8853;52.552;13.356;2022-07-06T07:15:40;29.00;25.80
17473;DHT22;8853;52.552;13.356;2022-07-06T07:18:09;29.00;25.80
17473;DHT22;8853;52.552;13.356;2022-07-06T07:20:37;29.00;25.80
17473;DHT22;8853;52.552;13.356;2022-07-06T07:23:06;29.00;25.70
17473;DHT22;8853;52.552;13.356;2022-07-06T07:25:34;29.00;25.70
17473;DHT22;8853;52.552;13.356;2022-07-06T07:28:03;29.10;25.70
17473;DHT22;8853;52.552;13.356;2022-07-06T07:30:32;29.10;25.70
17473;DHT22;8853;52.552;13.356;2022-07-06T07:33:01;29.10;25.70
17473;DHT22;8853;52.552;13.356;2022-07-06T07:35:30;29.10;25.70
17473;DHT22;8853;52.552;13.356;2022-07-06T07:37:59;29.10;25.60
17473;DHT22;8853;52.552;13.356;2022-07-06T07:40:27;29.20;25.60
17473;DHT22;8853;52.552;13.356;2022-07-06T07:42:57;29.10;25.60
17473;DHT22;8853;52.552;13.356;2022-07-06T07:45:26;29.10;25.60
17473;DHT22;8853;52.552;13.356;2022-07-06T07:47:54;29.20;25.60
17473;DHT22;8853;52.552;13.356;2022-07-06T07:50:23;29.20;25.60
17473;DHT22;8853;52.552;13.356;2022-07-06T07:52:52;29.20;25.60
17473;DHT22;8853;52.552;13.356;2022-07-06T07:55:20;29.20;25.50
17473;DHT22;8853;52.552;13.356;2022-07-06T07:57:49;29.20;25.50
17473;DHT22;8853;52.552;13.356;2022-07-06T08:00:17;29.20;25.50
17473;DHT22;8853;52.552;13.356;2022-07-06T08:02:47;29.20;25.50
17473;DHT22;8853;52.552;13.356;2022-07-06T08:05:15;29.20;25.50
17473;DHT22;8853;52.552;13.356;2022-07-06T08:07:44;29.20;25.50
17473;DHT22;8853;52.552;13.356;2022-07-06T08:10:13;29.30;25.50
17473;DHT22;8853;52.552;13.356;2022-07-06T08:12:45;29.30;25.50
17473;DHT22;8853;52.552;13.356;2022-07-06T08:15:13;29.30;25.40
17473;DHT22;8853;52.552;13.356;2022-07-06T08:17:42;29.30;25.40
17473;DHT22;8853;52.552;13.356;2022-07-06T08:20:11;29.30;25.40
17473;DHT22;8853;52.552;13.356;2022-07-06T08:22:39;29.30;25.40
17473;DHT22;8853;52.552;13.356;2022-07-06T08:25:08;29.30;25.40
17473;DHT22;8853;52.552;13.356;2022-07-06T08:27:37;29.30;25.40
17473;DHT22;8853;52.552;13.356;2022-07-06T08:30:06;29.30;25.20
17473;DHT22;8853;52.552;13.356;2022-07-06T08:32:36;29.30;25.30
17473;DHT22;8853;52.552;13.356;2022-07-06T08:35:04;29.30;26.00
17473;DHT22;8853;52.552;13.356;2022-07-06T08:37:32;29.40;25.30
17473;DHT22;8853;52.552;13.356;2022-07-06T08:40:01;29.30;25.30
17473;DHT22;8853;52.552;13.356;2022-07-06T08:42:30;29.40;25.30
17473;DHT22;8853;52.552;13.356;2022-07-06T08:44:58;29.40;25.30
17473;DHT22;8853;52.552;13.356;2022-07-06T08:47:28;29.40;25.30
17473;DHT22;8853;52.552;13.356;2022-07-06T08:49:57;29.40;25.30
17473;DHT22;8853;52.552;13.356;2022-07-06T08:52:25;29.40;25.20
17473;DHT22;8853;52.552;13.356;2022-07-06T08:54:54;29.40;25.20
17473;DHT22;8853;52.552;13.356;2022-07-06T08:57:22;29.40;25.20
17473;DHT22;8853;52.552;13.356;2022-07-06T08:59:51;29.40;25.20
17473;DHT22;8853;52.552;13.356;2022-07-06T09:02:20;29.50;25.20
17473;DHT22;8853;52.552;13.356;2022-07-06T09:04:48;29.40;25.20
17473;DHT22;8853;52.552;13.356;2022-07-06T09:07:17;29.50;25.20
17473;DHT22;8853;52.552;13.356;2022-07-06T09:09:46;29.50;25.10
17473;DHT22;8853;52.552;13.356;2022-07-06T09:12:14;29.40;25.10
17473;DHT22;8853;52.552;13.356;2022-07-06T09:14:44;29.50;25.10
17473;DHT22;8853;52.552;13.356;2022-07-06T09:17:12;29.50;25.10
17473;DHT22;8853;52.552;13.356;2022-07-06T09:19:41;29.50;25.10
17473;DHT22;8853;52.552;13.356;2022-07-06T09:22:10;29.50;25.10
17473;DHT22;8853;52.552;13.356;2022-07-06T09:24:41;29.50;25.70
17473;DHT22;8853;52.552;13.356;2022-07-06T09:27:14;29.50;25.10
17473;DHT22;8853;52.552;13.356;2022-07-06T09:29:36;29.50;25.00
17473;DHT22;8853;52.552;13.356;2022-07-06T09:32:06;29.50;25.00
17473;DHT22;8853;52.552;13.356;2022-07-06T09:34:45;29.60;25.00
17473;DHT22;8853;52.552;13.356;2022-07-06T09:37:14;29.60;25.00
17473;DHT22;8853;52.552;13.356;2022-07-06T09:39:42;29.50;25.00
17473;DHT22;8853;52.552;13.356;2022-07-06T09:42:10;29.50;25.00
17473;DHT22;8853;52.552;13.356;2022-07-06T09:44:40;29.50;25.00
17473;DHT22;8853;52.552;13.356;2022-07-06T09:47:09;29.60;25.00
17473;DHT22;8853;52.552;13.356;2022-07-06T09:49:37;29.60;25.00
17473;DHT22;8853;52.552;13.356;2022-07-06T09:52:08;29.60;24.90
17473;DHT22;8853;52.552;13.356;2022-07-06T09:54:37;29.60;24.90
17473;DHT22;8853;52.552;13.356;2022-07-06T09:57:05;29.60;24.90
17473;DHT22;8853;52.552;13.356;2022-07-06T09:59:34;29.60;24.90
17473;DHT22;8853;52.552;13.356;2022-07-06T10:02:04;29.60;24.90
17473;DHT22;8853;52.552;13.356;2022-07-06T10:04:31;29.60;24.80
17473;DHT22;8853;52.552;13.356;2022-07-06T10:07:00;29.60;24.80
17473;DHT22;8853;52.552;13.356;2022-07-06T10:09:29;29.70;24.80
17473;DHT22;8853;52.552;13.356;2022-07-06T10:11:58;29.70;25.40
17473;DHT22;8853;52.552;13.356;2022-07-06T10:14:27;29.70;24.80
17473;DHT22;8853;52.552;13.356;2022-07-06T10:16:58;29.70;24.80
17473;DHT22;8853;52.552;13.356;2022-07-06T10:19:26;29.70;24.80
17473;DHT22;8853;52.552;13.356;2022-07-06T10:21:54;29.70;24.80
17473;DHT22;8853;52.552;13.356;2022-07-06T10:24:23;29.70;24.80
17473;DHT22;8853;52.552;13.356;2022-07-06T10:26:52;29.70;24.80
17473;DHT22;8853;52.552;13.356;2022-07-06T10:29:20;29.70;24.80
17473;DHT22;8853;52.552;13.356;2022-07-06T10:31:49;29.70;24.80
17473;DHT22;8853;52.552;13.356;2022-07-06T10:34:18;29.70;24.80
17473;DHT22;8853;52.552;13.356;2022-07-06T10:36:50;29.70;24.70
17473;DHT22;8853;52.552;13.356;2022-07-06T10:39:31;29.70;24.70
17473;DHT22;8853;52.552;13.356;2022-07-06T10:41:46;29.70;24.70
17473;DHT22;8853;52.552;13.356;2022-07-06T10:44:16;29.70;24.70
17473;DHT22;8853;52.552;13.356;2022-07-06T10:46:53;29.70;24.70
17473;DHT22;8853;52.552;13.356;2022-07-06T10:49:22;29.70;24.70
17473;DHT22;8853;52.552;13.356;2022-07-06T10:51:50;29.70;24.70
17473;DHT22;8853;52.552;13.356;2022-07-06T10:54:20;29.70;24.70
17473;DHT22;8853;52.552;13.356;2022-07-06T10:56:49;29.70;24.70
17473;DHT22;8853;52.552;13.356;2022-07-06T10:59:19;29.70;24.70
17473;DHT22;8853;52.552;13.356;2022-07-06T11:04:43;29.80;24.60
17473;DHT22;8853;52.552;13.356;2022-07-06T11:07:18;29.70;24.70
17473;DHT22;8853;52.552;13.356;2022-07-06T11:09:56;29.70;24.80
17473;DHT22;8853;52.552;13.356;2022-07-06T11:12:24;29.70;24.80
17473;DHT22;8853;52.552;13.356;2022-07-06T11:14:53;29.70;24.80
17473;DHT22;8853;52.552;13.356;2022-07-06T11:17:22;29.70;24.70
17473;DHT22;8853;52.552;13.356;2022-07-06T11:19:54;29.80;24.70
17473;DHT22;8853;52.552;13.356;2022-07-06T11:22:19;29.80;24.70
17473;DHT22;8853;52.552;13.356;2022-07-06T11:24:48;29.80;24.60
17473;DHT22;8853;52.552;13.356;2022-07-06T11:27:17;29.80;24.60
17473;DHT22;8853;52.552;13.356;2022-07-06T11:29:45;29.80;24.60
17473;DHT22;8853;52.552;13.356;2022-07-06T11:32:22;29.80;24.60
17473;DHT22;8853;52.552;13.356;2022-07-06T11:34:48;29.80;24.50
17473;DHT22;8853;52.552;13.356;2022-07-06T11:37:17;29.80;24.50
17473;DHT22;8853;52.552;13.356;2022-07-06T11:39:46;29.80;24.60
17473;DHT22;8853;52.552;13.356;2022-07-06T11:42:15;29.80;24.50
17473;DHT22;8853;52.552;13.356;2022-07-06T11:44:43;29.90;24.50
17473;DHT22;8853;52.552;13.356;2022-07-06T11:47:12;29.80;24.50
17473;DHT22;8853;52.552;13.356;2022-07-06T11:49:41;29.90;24.50
17473;DHT22;8853;52.552;13.356;2022-07-06T11:52:11;29.90;24.50
17473;DHT22;8853;52.552;13.356;2022-07-06T11:54:41;29.90;24.50
17473;DHT22;8853;52.552;13.356;2022-07-06T11:57:11;29.90;24.40
17473;DHT22;8853;52.552;13.356;2022-07-06T11:59:40;29.90;24.50
17473;DHT22;8853;52.552;13.356;2022-07-06T12:02:14;29.90;24.50
17473;DHT22;8853;52.552;13.356;2022-07-06T12:04:42;29.90;24.50
17473;DHT22;8853;52.552;13.356;2022-07-06T12:07:16;29.90;24.50
17473;DHT22;8853;52.552;13.356;2022-07-06T12:09:46;29.90;24.50
17473;DHT22;8853;52.552;13.356;2022-07-06T12:12:14;29.90;24.50
17473;DHT22;8853;52.552;13.356;2022-07-06T12:14:42;29.90;24.50
17473;DHT22;8853;52.552;13.356;2022-07-06T12:17:14;29.90;24.40
17473;DHT22;8853;52.552;13.356;2022-07-06T12:19:40;29.90;24.40
17473;DHT22;8853;52.552;13.356;2022-07-06T12:22:08;29.90;24.40
17473;DHT22;8853;52.552;13.356;2022-07-06T12:24:37;29.90;24.40
17473;DHT22;8853;52.552;13.356;2022-07-06T12:27:18;30.00;24.80
17473;DHT22;8853;52.552;13.356;2022-07-06T12:29:47;30.00;24.70
17473;DHT22;8853;52.552;13.356;2022-07-06T12:32:19;30.00;24.80
17473;DHT22;8853;52.552;13.356;2022-07-06T12:34:47;29.90;24.40
17473;DHT22;8853;52.552;13.356;2022-07-06T12:37:15;30.00;24.80
17473;DHT22;8853;52.552;13.356;2022-07-06T12:39:45;30.00;24.80
17473;DHT22;8853;52.552;13.356;2022-07-06T12:42:13;30.00;24.80
17473;DHT22;8853;52.552;13.356;2022-07-06T12:44:45;30.00;24.70
17473;DHT22;8853;52.552;13.356;2022-07-06T12:47:16;30.00;24.70
17473;DHT22;8853;52.552;13.356;2022-07-06T12:49:41;30.00;24.70
17473;DHT22;8853;52.552;13.356;2022-07-06T12:52:11;30.00;24.70
17473;DHT22;8853;52.552;13.356;2022-07-06T12:54:49;30.00;24.70
17473;DHT22;8853;52.552;13.356;2022-07-06T12:59:46;30.00;24.70
17473;DHT22;8853;52.552;13.356;2022-07-06T13:02:21;30.10;24.70
17473;DHT22;8853;52.552;13.356;2022-07-06T13:05:02;30.00;24.70
17473;DHT22;8853;52.552;13.356;2022-07-06T13:07:30;30.00;24.70
17473;DHT22;8853;52.552;13.356;2022-07-06T13:09:58;30.00;24.70
17473;DHT22;8853;52.552;13.356;2022-07-06T13:12:27;30.00;24.80
17473;DHT22;8853;52.552;13.356;2022-07-06T13:14:55;30.00;24.80
17473;DHT22;8853;52.552;13.356;2022-07-06T13:17:24;30.10;24.80
17473;DHT22;8853;52.552;13.356;2022-07-06T13:19:53;30.10;24.80
17473;DHT22;8853;52.552;13.356;2022-07-06T13:22:21;30.10;24.90
17473;DHT22;8853;52.552;13.356;2022-07-06T13:24:50;30.10;24.90
17473;DHT22;8853;52.552;13.356;2022-07-06T13:27:19;30.10;24.90
17473;DHT22;8853;52.552;13.356;2022-07-06T13:29:48;30.10;25.20
17473;DHT22;8853;52.552;13.356;2022-07-06T13:32:17;30.10;24.90
17473;DHT22;8853;52.552;13.356;2022-07-06T13:34:45;30.10;24.90
17473;DHT22;8853;52.552;13.356;2022-07-06T13:37:14;30.10;24.90
17473;DHT22;8853;52.552;13.356;2022-07-06T13:39:43;30.20;25.00
17473;DHT22;8853;52.552;13.356;2022-07-06T13:42:12;30.20;24.90
17473;DHT22;8853;52.552;13.356;2022-07-06T13:44:41;30.20;25.50
17473;DHT22;8853;52.552;13.356;2022-07-06T13:47:09;30.20;24.90
17473;DHT22;8853;52.552;13.356;2022-07-06T13:49:38;30.20;24.90
17473;DHT22;8853;52.552;13.356;2022-07-06T13:52:11;30.20;24.90
17473;DHT22;8853;52.552;13.356;2022-07-06T13:54:40;30.20;23.10
17473;DHT22;8853;52.552;13.356;2022-07-06T13:57:10;30.20;21.70
17473;DHT22;8853;52.552;13.356;2022-07-06T13:59:39;30.10;21.00
17473;DHT22;8853;52.552;13.356;2022-07-06T14:02:08;30.10;20.60
17473;DHT22;8853;52.552;13.356;2022-07-06T14:04:36;30.00;20.40
17473;DHT22;8853;52.552;13.356;2022-07-06T14:07:05;29.90;19.70
17473;DHT22;8853;52.552;13.356;2022-07-06T14:09:34;29.90;19.20
17473;DHT22;8853;52.552;13.356;2022-07-06T14:12:04;29.70;19.30
17473;DHT22;8853;52.552;13.356;2022-07-06T14:14:33;29.70;19.30
17473;DHT22;8853;52.552;13.356;2022-07-06T14:17:03;29.60;19.60
17473;DHT22;8853;52.552;13.356;2022-07-06T14:19:31;29.60;19.50
17473;DHT22;8853;52.552;13.356;2022-07-06T14:22:00;29.50;19.70
17473;DHT22;8853;52.552;13.356;2022-07-06T14:24:28;29.50;19.70
17473;DHT22;8853;52.552;13.356;2022-07-06T14:26:57;29.40;20.00
17473;DHT22;8853;52.552;13.356;2022-07-06T14:29:26;29.30;20.00
17473;DHT22;8853;52.552;13.356;2022-07-06T14:31:54;29.30;20.20
17473;DHT22;8853;52.552;13.356;2022-07-06T14:34:23;29.20;21.10
17473;DHT22;8853;52.552;13.356;2022-07-06T14:36:52;29.20;20.70
17473;DHT22;8853;52.552;13.356;2022-07-06T14:39:20;29.20;20.70
17473;DHT22;8853;52.552;13.356;2022-07-06T14:41:49;29.10;20.70
17473;DHT22;8853;52.552;13.356;2022-07-06T14:44:20;29.10;20.60
17473;DHT22;8853;52.552;13.356;2022-07-06T14:46:49;29.10;20.70
17473;DHT22;8853;52.552;13.356;2022-07-06T14:49:18;29.10;20.80
17473;DHT22;8853;52.552;13.356;2022-07-06T14:51:47;29.00;20.70
17473;DHT22;8853;52.552;13.356;2022-07-06T14:54:15;29.00;20.80
17473;DHT22;8853;52.552;13.356;2022-07-06T14:56:44;29.00;21.00
17473;DHT22;8853;52.552;13.356;2022-07-06T14:59:13;28.90;20.70
17473;DHT22;8853;52.552;13.356;2022-07-06T15:01:42;28.90;20.60
17473;DHT22;8853;52.552;13.356;2022-07-06T15:04:11;28.90;20.80
17473;DHT22;8853;52.552;13.356;2022-07-06T15:06:39;28.90;20.90
17473;DHT22;8853;52.552;13.356;2022-07-06T15:09:08;28.80;21.10
17473;DHT22;8853;52.552;13.356;2022-07-06T15:11:37;28.80;21.20
17473;DHT22;8853;52.552;13.356;2022-07-06T15:14:05;28.70;21.20
17473;DHT22;8853;52.552;13.356;2022-07-06T15:16:34;28.70;21.40
17473;DHT22;8853;52.552;13.356;2022-07-06T15:19:03;28.60;21.50
17473;DHT22;8853;52.552;13.356;2022-07-06T15:21:31;28.60;21.60
17473;DHT22;8853;52.552;13.356;2022-07-06T15:24:00;28.60;21.70
17473;DHT22;8853;52.552;13.356;2022-07-06T15:26:28;28.60;21.70
17473;DHT22;8853;52.552;13.356;2022-07-06T15:28:57;28.50;21.70
17473;DHT22;8853;52.552;13.356;2022-07-06T15:31:26;28.40;21.90
17473;DHT22;8853;52.552;13.356;2022-07-06T15:33:54;28.40;22.00
17473;DHT22;8853;52.552;13.356;2022-07-06T15:36:23;28.40;22.00
17473;DHT22;8853;52.552;13.356;2022-07-06T15:38:52;28.40;22.10
17473;DHT22;8853;52.552;13.356;2022-07-06T15:41:21;28.40;22.00
17473;DHT22;8853;52.552;13.356;2022-07-06T15:43:50;28.40;22.00
17473;DHT22;8853;52.552;13.356;2022-07-06T15:46:18;28.40;21.90
17473;DHT22;8853;52.552;13.356;2022-07-06T15:48:47;28.40;22.00
17473;DHT22;8853;52.552;13.356;2022-07-06T15:51:15;28.40;22.00